Time;durP1;ratioP1;P1;durP2;ratioP2;P2;SDS_P1;SDS_P2;PMS_P1;PMS_P2;Temp;Humidity;BMP_temperature;BMP_pressure;BME280_temperature;BME280_humidity;BME280_pressure;Samples;Min_cycle;Max_cycle;Signal;HPM_P1;HPM_P2
2022/09/27 00:00:51;;;;;;;5.15;1.73;;;9.20;99.90;;;;;;5015517;28;20034;-70
2022/09/27 00:03:16;;;;;;;12.02;2.03;;;9.20;99.90;;;;;;5015887;28;20509;-69
2022/09/27 00:05:42;;;;;;;9.80;2.72;;;9.20;99.90;;;;;;5015955;28;20437;-69
2022/09/27 00:08:08;;;;;;;14.70;3.85;;;9.30;99.90;;;;;;5015339;28;20029;-70
2022/09/27 00:10:33;;;;;;;18.67;4.05;;;9.40;99.90;;;;;;5016024;28;20381;-70
2022/09/27 00:12:59;;;;;;;11.35;3.03;;;9.50;99.90;;;;;;5015723;28;20026;-70
2022/09/27 00:15:25;;;;;;;15.70;4.10;;;9.50;99.90;;;;;;5015655;28;20075;-70
2022/09/27 00:17:51;;;;;;;15.77;2.95;;;9.50;99.90;;;;;;5014994;28;20109;-69
2022/09/27 00:20:19;;;;;;;5.68;2.53;;;9.60;99.90;;;;;;5015608;28;20164;-69
2022/09/27 00:22:45;;;;;;;9.00;2.65;;;9.60;99.90;;;;;;5015855;28;20022;-69
2022/09/27 00:25:11;;;;;;;6.57;3.13;;;9.60;99.90;;;;;;5015533;28;20022;-69
2022/09/27 00:27:37;;;;;;;8.82;2.10;;;9.60;99.90;;;;;;5014966;28;20030;-70
2022/09/27 00:30:02;;;;;;;5.57;2.30;;;9.50;99.90;;;;;;5015409;28;20030;-69
2022/09/27 00:32:28;;;;;;;4.03;1.80;;;9.50;99.90;;;;;;5015528;28;20084;-69
2022/09/27 00:34:54;;;;;;;4.75;2.25;;;9.60;99.90;;;;;;5015276;28;20030;-69
2022/09/27 00:37:20;;;;;;;2.65;1.77;;;9.60;99.90;;;;;;5015187;28;20029;-69
2022/09/27 00:39:45;;;;;;;8.27;2.53;;;9.70;99.90;;;;;;5014675;28;20470;-70
2022/09/27 00:42:11;;;;;;;6.88;2.55;;;9.70;99.90;;;;;;5015218;28;20026;-70
2022/09/27 00:44:37;;;;;;;6.38;1.98;;;9.70;99.90;;;;;;5015046;28;20057;-70
2022/09/27 00:47:26;;;;;;;6.55;2.00;;;9.70;99.90;;;;;;5015089;28;20034;-70
2022/09/27 00:50:13;;;;;;;3.30;1.75;;;9.70;99.90;;;;;;5015267;28;20030;-70
2022/09/27 00:53:03;;;;;;;5.75;2.65;;;9.80;99.90;;;;;;5014552;28;20033;-70
2022/09/27 00:55:33;;;;;;;4.18;1.83;;;9.80;99.90;;;;;;5015049;28;20030;-70
2022/09/27 00:58:00;;;;;;;5.82;1.90;;;9.70;99.90;;;;;;5015085;28;20030;-70
2022/09/27 01:00:25;;;;;;;4.65;1.70;;;9.90;99.90;;;;;;5014815;28;20022;-70
2022/09/27 01:02:53;;;;;;;10.18;2.63;;;9.90;99.90;;;;;;5014742;28;20379;-70
2022/09/27 01:05:22;;;;;;;8.20;2.50;;;10.00;99.90;;;;;;5014198;28;20033;-70
2022/09/27 01:07:47;;;;;;;8.57;2.20;;;9.90;99.90;;;;;;5014781;28;20033;-70
2022/09/27 01:10:16;;;;;;;3.40;1.85;;;9.80;99.90;;;;;;5014946;28;20026;-69
2022/09/27 01:13:00;;;;;;;7.95;2.28;;;9.90;99.90;;;;;;5014626;28;20501;-69
2022/09/27 01:15:35;;;;;;;7.50;2.13;;;9.90;99.90;;;;;;5014626;28;20547;-69
2022/09/27 01:18:34;;;;;;;11.57;3.28;;;9.90;99.90;;;;;;5014108;28;20096;-70
2022/09/27 01:21:13;;;;;;;14.10;3.38;;;10.00;99.90;;;;;;5014770;28;20372;-70
2022/09/27 01:23:58;;;;;;;10.73;3.03;;;10.00;99.90;;;;;;5014679;28;20024;-70
2022/09/27 01:26:45;;;;;;;17.30;3.75;;;10.00;99.90;;;;;;5014299;28;20028;-70
2022/09/27 01:29:39;;;;;;;7.55;2.97;;;9.90;99.90;;;;;;5014959;28;20025;-69
2022/09/27 01:32:22;;;;;;;11.05;4.05;;;10.00;99.90;;;;;;4993818;28;20044;-69
2022/09/27 01:35:20;;;;;;;14.25;4.05;;;10.00;99.90;;;;;;5013059;28;20026;-70
2022/09/27 01:37:55;;;;;;;16.40;4.50;;;9.90;99.90;;;;;;5014699;28;20104;-70
2022/09/27 01:40:50;;;;;;;18.77;4.47;;;9.90;99.90;;;;;;5014003;28;20022;-70
2022/09/27 01:43:31;;;;;;;11.77;4.25;;;10.00;99.90;;;;;;5014208;28;20099;-70
2022/09/27 01:46:20;;;;;;;23.95;3.95;;;10.00;99.90;;;;;;5014316;28;20096;-69
2022/09/27 01:48:49;;;;;;;24.48;5.45;;;10.00;99.90;;;;;;5014320;28;20022;-69
2022/09/27 01:51:36;;;;;;;25.42;5.13;;;10.10;99.90;;;;;;5013910;28;20411;-69
2022/09/27 01:54:04;;;;;;;21.55;4.75;;;10.00;99.90;;;;;;5013483;28;20037;-69
2022/09/27 01:56:34;;;;;;;20.92;5.78;;;10.00;99.90;;;;;;5013692;28;20026;-69
2022/09/27 01:58:59;;;;;;;17.50;4.38;;;10.10;99.90;;;;;;5014104;28;20026;-69
2022/09/27 02:01:28;;;;;;;28.20;5.63;;;10.10;99.90;;;;;;5013433;28;20041;-70
2022/09/27 02:03:56;;;;;;;21.95;5.32;;;10.10;99.90;;;;;;5013811;28;20474;-70
2022/09/27 02:06:28;;;;;;;15.18;4.72;;;10.10;99.90;;;;;;5013327;28;20026;-70
2022/09/27 02:09:07;;;;;;;21.02;3.97;;;10.10;99.90;;;;;;5030268;28;20048;-70
2022/09/27 02:11:34;;;;;;;17.70;3.95;;;10.10;99.90;;;;;;5023640;28;20030;-70
2022/09/27 02:14:17;;;;;;;11.55;4.13;;;10.10;99.90;;;;;;5017693;28;20359;-70
2022/09/27 02:16:55;;;;;;;9.50;3.85;;;10.00;99.90;;;;;;5027571;28;20485;-70
2022/09/27 02:19:39;;;;;;;12.23;3.72;;;10.10;99.90;;;;;;5013965;28;20029;-70
2022/09/27 02:22:05;;;;;;;;;;;10.00;99.90;;;;;;5012282;28;20371;-70
2022/09/27 02:24:55;;;;;;;12.30;2.75;;;10.10;99.90;;;;;;5013558;28;20012;-70
2022/09/27 02:27:30;;;;;;;21.30;2.92;;;10.10;99.90;;;;;;5013514;28;20018;-70
2022/09/27 02:30:02;;;;;;;10.70;2.50;;;10.10;99.90;;;;;;5013574;28;20562;-70
2022/09/27 02:32:29;;;;;;;8.73;2.38;;;10.10;99.90;;;;;;5013067;28;20029;-70
2022/09/27 02:34:56;;;;;;;9.65;2.33;;;10.10;99.90;;;;;;5013415;28;20014;-70
2022/09/27 02:37:22;;;;;;;9.98;2.60;;;10.00;99.90;;;;;;5013434;28;20030;-70
2022/09/27 02:39:48;;;;;;;13.70;2.42;;;10.00;99.90;;;;;;5013805;28;20116;-70
2022/09/27 02:42:14;;;;;;;14.88;2.55;;;10.10;99.90;;;;;;5013950;28;20462;-70
2022/09/27 02:44:40;;;;;;;10.13;2.60;;;10.00;99.90;;;;;;5012900;28;20018;-70
2022/09/27 02:47:18;;;;;;;17.17;2.35;;;10.00;99.90;;;;;;5013360;28;20405;-70
2022/09/27 02:50:08;;;;;;;12.30;2.20;;;10.00;99.90;;;;;;5013558;28;20037;-70
2022/09/27 02:52:51;;;;;;;6.68;2.67;;;10.00;99.90;;;;;;5013617;28;20080;-70
2022/09/27 02:55:48;;;;;;;9.60;2.20;;;10.00;99.90;;;;;;5013469;28;20045;-70
2022/09/27 02:58:33;;;;;;;7.25;2.28;;;10.00;99.90;;;;;;5087632;23;20558;-69
2022/09/27 03:00:58;;;;;;;;;;;10.00;99.90;;;;;;5072891;28;20060;-70
2022/09/27 03:03:51;;;;;;;17.65;2.83;;;9.90;99.90;;;;;;5072982;28;19904;-70
2022/09/27 03:06:20;;;;;;;11.63;2.33;;;9.90;99.90;;;;;;5076638;28;20043;-70
2022/09/27 03:08:46;;;;;;;10.23;2.17;;;9.90;99.90;;;;;;5077013;28;20020;-71
2022/09/27 03:11:12;;;;;;;10.18;1.80;;;9.90;99.90;;;;;;5076600;28;20035;-70
2022/09/27 03:13:38;;;;;;;14.45;2.42;;;9.90;99.90;;;;;;5076614;28;20016;-70
2022/09/27 03:16:06;;;;;;;5.68;1.95;;;9.90;99.90;;;;;;5076568;28;20032;-71
2022/09/27 03:18:32;;;;;;;10.68;2.15;;;9.90;99.90;;;;;;5076710;28;20028;-71
2022/09/27 03:20:58;;;;;;;11.13;2.45;;;9.90;99.90;;;;;;5076504;28;20025;-71
2022/09/27 03:23:24;;;;;;;8.27;1.67;;;9.90;99.90;;;;;;5076469;28;20031;-71
2022/09/27 03:25:50;;;;;;;9.63;2.25;;;9.80;99.90;;;;;;5076244;28;20089;-71
2022/09/27 03:28:16;;;;;;;5.82;1.98;;;9.80;99.90;;;;;;5076553;28;20028;-71
2022/09/27 03:30:43;;;;;;;14.23;3.35;;;9.80;99.90;;;;;;5076423;28;20472;-71
2022/09/27 03:33:09;;;;;;;16.50;3.17;;;9.80;99.90;;;;;;5075765;28;20072;-71
2022/09/27 03:35:35;;;;;;;11.70;2.90;;;9.80;99.90;;;;;;5076221;28;20055;-71
2022/09/27 03:38:01;;;;;;;14.63;2.30;;;9.80;99.90;;;;;;5076049;28;20021;-70
2022/09/27 03:40:26;;;;;;;13.00;2.38;;;9.80;99.90;;;;;;5076132;28;20384;-70
2022/09/27 03:42:52;;;;;;;9.80;2.67;;;9.70;99.90;;;;;;5076323;28;20126;-69
2022/09/27 03:45:18;;;;;;;11.93;2.42;;;9.70;99.90;;;;;;5076252;28;20028;-68
2022/09/27 03:47:43;;;;;;;9.25;2.50;;;9.70;99.90;;;;;;5075275;28;20024;-68
2022/09/27 03:50:11;;;;;;;12.70;2.60;;;9.70;99.90;;;;;;5075881;28;20034;-68
2022/09/27 03:52:37;;;;;;;7.43;2.90;;;9.70;99.90;;;;;;5074619;28;20020;-69
2022/09/27 03:55:03;;;;;;;16.27;3.63;;;9.70;99.90;;;;;;5075790;28;20033;-69
2022/09/27 03:57:30;;;;;;;9.48;3.75;;;9.70;99.90;;;;;;5075647;28;20495;-69
2022/09/27 03:59:58;;;;;;;12.32;3.88;;;9.70;99.90;;;;;;5056073;28;20029;-69
2022/09/27 04:02:25;;;;;;;13.35;4.03;;;9.70;99.90;;;;;;5055162;28;20025;-69
2022/09/27 04:04:51;;;;;;;6.88;3.90;;;9.70;99.90;;;;;;5055631;28;20025;-69
2022/09/27 04:07:16;;;;;;;12.35;4.88;;;9.70;99.90;;;;;;5071128;28;20027;-69
2022/09/27 04:09:43;;;;;;;11.52;5.05;;;9.70;99.90;;;;;;5075803;28;20029;-69
2022/09/27 04:12:09;;;;;;;14.32;5.85;;;9.70;99.90;;;;;;5075536;28;20399;-68
2022/09/27 04:14:34;;;;;;;12.25;5.18;;;9.70;99.90;;;;;;5075434;28;20103;-68
2022/09/27 04:17:00;;;;;;;11.75;5.55;;;9.70;99.90;;;;;;5074616;28;20384;-68
2022/09/27 04:19:26;;;;;;;11.02;5.63;;;9.60;99.90;;;;;;5075342;28;20021;-68
2022/09/27 04:21:51;;;;;;;16.98;6.05;;;9.60;99.90;;;;;;5075285;28;20017;-68
2022/09/27 04:24:17;;;;;;;17.33;6.35;;;9.60;99.90;;;;;;5075554;28;20025;-68
2022/09/27 04:26:43;;;;;;;11.80;6.35;;;9.60;99.90;;;;;;5074650;28;20438;-68
2022/09/27 04:29:09;;;;;;;18.30;6.38;;;9.60;99.90;;;;;;5075439;28;20480;-68
2022/09/27 04:31:36;;;;;;;10.43;5.97;;;9.60;99.90;;;;;;5075114;28;20021;-68
2022/09/27 04:34:03;;;;;;;14.38;6.22;;;9.60;99.90;;;;;;5075097;28;20040;-68
2022/09/27 04:36:29;;;;;;;9.05;6.32;;;9.50;99.90;;;;;;5074872;28;20058;-68
2022/09/27 04:38:57;;;;;;;11.48;6.15;;;9.50;99.90;;;;;;5061872;28;20389;-68
2022/09/27 04:41:24;;;;;;;16.08;7.38;;;9.50;99.90;;;;;;5072418;28;20051;-68
2022/09/27 04:43:51;;;;;;;14.20;7.07;;;9.50;99.90;;;;;;5074956;28;20020;-69
2022/09/27 04:46:17;;;;;;;13.13;6.97;;;9.50;99.90;;;;;;5075093;28;20104;-70
2022/09/27 04:48:42;;;;;;;10.82;6.20;;;9.60;99.90;;;;;;5074571;28;20055;-70
2022/09/27 04:51:09;;;;;;;11.13;6.43;;;9.60;99.90;;;;;;5074236;28;20462;-70
2022/09/27 04:53:35;;;;;;;12.27;6.82;;;9.60;99.90;;;;;;5074813;28;20499;-70
2022/09/27 04:56:01;;;;;;;14.05;6.47;;;9.60;99.90;;;;;;5074643;28;20024;-70
2022/09/27 04:58:28;;;;;;;19.95;5.95;;;9.60;99.90;;;;;;5074399;28;20025;-70
2022/09/27 05:00:54;;;;;;;12.68;6.03;;;9.60;99.90;;;;;;5074780;28;20451;-69
2022/09/27 05:03:23;;;;;;;16.35;6.88;;;9.60;99.90;;;;;;5074030;28;20105;-69
2022/09/27 05:05:49;;;;;;;13.57;6.20;;;9.50;99.90;;;;;;5074636;28;20565;-69
2022/09/27 05:08:14;;;;;;;19.40;6.82;;;9.60;99.90;;;;;;5074360;28;20064;-69
2022/09/27 05:10:40;;;;;;;18.05;6.47;;;9.50;99.90;;;;;;5073836;28;20028;-69
2022/09/27 05:13:05;;;;;;;13.07;5.50;;;9.60;99.90;;;;;;5074275;28;20491;-69
2022/09/27 05:15:31;;;;;;;17.25;6.15;;;9.50;99.90;;;;;;5074480;28;20098;-69
2022/09/27 05:17:57;;;;;;;19.20;6.43;;;9.50;99.90;;;;;;5074184;28;20017;-69
2022/09/27 05:20:24;;;;;;;19.25;6.13;;;9.50;99.90;;;;;;5074111;28;20479;-69
2022/09/27 05:22:50;;;;;;;24.13;7.68;;;9.50;99.90;;;;;;5074354;28;20028;-68
2022/09/27 05:25:17;;;;;;;25.63;7.40;;;9.50;99.90;;;;;;5073701;28;20380;-68
2022/09/27 05:27:42;;;;;;;19.85;7.53;;;9.60;99.90;;;;;;5073240;28;20038;-68
2022/09/27 05:30:08;;;;;;;23.25;7.22;;;9.60;99.90;;;;;;5074270;28;20100;-68
2022/09/27 05:32:34;;;;;;;18.13;7.93;;;9.60;99.90;;;;;;5073999;28;20021;-68
2022/09/27 05:35:00;;;;;;;25.05;8.32;;;9.60;99.90;;;;;;5073467;28;20035;-68
2022/09/27 05:37:25;;;;;;;21.52;7.97;;;9.60;99.90;;;;;;5073684;28;20476;-68
2022/09/27 05:39:51;;;;;;;28.00;8.15;;;9.60;99.90;;;;;;5073791;28;20032;-69
2022/09/27 05:42:17;;;;;;;25.80;9.63;;;9.60;99.90;;;;;;5073641;28;20021;-69
2022/09/27 05:44:47;;;;;;;21.55;8.82;;;9.50;99.90;;;;;;5073469;28;20038;-69
2022/09/27 05:47:14;;;;;;;32.17;9.73;;;9.60;99.90;;;;;;5073695;28;20119;-69
2022/09/27 05:49:39;;;;;;;32.10;10.13;;;9.60;99.90;;;;;;5073690;28;20503;-69
2022/09/27 05:52:06;;;;;;;39.13;9.93;;;9.70;99.90;;;;;;5073167;28;20334;-69
2022/09/27 05:54:31;;;;;;;24.05;9.13;;;9.60;99.90;;;;;;5073628;28;20476;-69
2022/09/27 05:56:58;;;;;;;27.00;9.00;;;9.60;99.90;;;;;;5073326;28;20086;-69
2022/09/27 05:59:27;;;;;;;44.55;14.40;;;9.60;99.90;;;;;;5073531;28;20024;-69
2022/09/27 06:01:53;;;;;;;32.15;10.80;;;9.70;99.90;;;;;;5072981;28;20028;-68
2022/09/27 06:04:19;;;;;;;25.92;9.32;;;9.70;99.90;;;;;;5073539;28;20392;-69
2022/09/27 06:06:45;;;;;;;24.15;8.63;;;9.70;99.90;;;;;;5073404;28;20457;-69
2022/09/27 06:09:13;;;;;;;21.08;7.32;;;9.80;99.90;;;;;;5073402;28;20077;-68
2022/09/27 06:11:39;;;;;;;31.67;9.98;;;9.80;99.90;;;;;;5072718;28;20117;-68
2022/09/27 06:14:04;;;;;;;28.02;8.02;;;9.70;99.90;;;;;;5073361;28;20021;-68
2022/09/27 06:16:30;;;;;;;21.17;7.88;;;9.80;99.90;;;;;;5073071;28;20388;-69
2022/09/27 06:18:56;;;;;;;19.88;8.50;;;9.80;99.90;;;;;;5073507;28;20020;-68
2022/09/27 06:21:22;;;;;;;22.30;7.93;;;9.70;99.90;;;;;;5072852;28;20056;-68
2022/09/27 06:23:48;;;;;;;25.17;8.50;;;9.70;99.90;;;;;;5073546;28;20102;-68
2022/09/27 06:26:14;;;;;;;29.75;8.82;;;9.80;99.90;;;;;;5073272;28;20013;-69
2022/09/27 06:28:40;;;;;;;27.83;9.48;;;9.80;99.90;;;;;;5073716;28;20029;-69
2022/09/27 06:31:07;;;;;;;25.58;8.20;;;9.70;99.90;;;;;;5072927;28;20481;-69
2022/09/27 06:33:34;;;;;;;20.15;8.23;;;9.80;99.90;;;;;;5073223;28;20366;-68
2022/09/27 06:36:06;;;;;;;26.48;8.93;;;9.90;99.90;;;;;;5073344;28;20507;-68
2022/09/27 06:38:32;;;;;;;23.00;8.30;;;9.80;99.90;;;;;;5074454;28;20032;-68
2022/09/27 06:41:01;;;;;;;26.77;9.55;;;9.80;99.90;;;;;;5077563;28;20367;-68
2022/09/27 06:43:28;;;;;;;26.27;7.95;;;9.80;99.90;;;;;;5077126;28;20020;-68
2022/09/27 06:45:53;;;;;;;23.70;8.75;;;9.80;99.90;;;;;;5077274;28;20476;-68
2022/09/27 06:48:19;;;;;;;33.25;9.20;;;9.90;99.90;;;;;;5077017;28;20068;-68
2022/09/27 06:50:47;;;;;;;20.30;7.75;;;9.90;99.90;;;;;;5076998;28;20058;-69
2022/09/27 06:53:15;;;;;;;21.50;8.95;;;9.90;99.90;;;;;;5077284;28;20024;-68
2022/09/27 06:55:40;;;;;;;25.60;9.00;;;10.00;99.90;;;;;;5077029;28;20028;-68
2022/09/27 07:00:53;;;;;;;22.08;8.15;;;10.00;99.90;;;;;;5077163;28;20093;-69
2022/09/27 07:03:21;;;;;;;20.83;8.15;;;10.00;99.90;;;;;;5077260;28;20024;-70
2022/09/27 07:05:58;;;;;;;19.10;7.47;;;10.00;99.90;;;;;;5077041;28;20021;-70
2022/09/27 07:08:27;;;;;;;26.08;8.60;;;10.00;99.90;;;;;;5076992;28;20020;-70
2022/09/27 07:10:54;;;;;;;26.02;8.38;;;10.00;99.90;;;;;;5076941;28;20017;-70
2022/09/27 07:13:20;;;;;;;23.45;7.95;;;10.10;99.90;;;;;;5076154;28;20059;-70
2022/09/27 07:15:46;;;;;;;31.27;7.93;;;10.10;99.90;;;;;;5075385;28;20075;-70
2022/09/27 07:18:11;;;;;;;27.17;8.98;;;10.10;99.90;;;;;;5076699;28;20102;-70
2022/09/27 07:20:40;;;;;;;22.67;8.23;;;10.10;99.90;;;;;;5076297;28;20413;-70
2022/09/27 07:23:07;;;;;;;18.40;6.82;;;10.10;99.90;;;;;;5076055;28;20024;-70
2022/09/27 07:25:33;;;;;;;21.08;7.13;;;10.20;99.90;;;;;;5076342;28;20035;-70
2022/09/27 07:28:03;;;;;;;27.38;8.05;;;10.20;99.90;;;;;;5076310;28;20052;-70
2022/09/27 07:30:29;;;;;;;21.33;7.35;;;10.20;99.90;;;;;;5076511;28;20037;-70
2022/09/27 07:32:59;;;;;;;22.48;6.95;;;10.30;99.90;;;;;;5075941;28;20032;-69
2022/09/27 07:35:26;;;;;;;25.80;7.07;;;10.30;99.90;;;;;;5076168;28;20051;-69
2022/09/27 07:37:53;;;;;;;20.30;6.90;;;10.30;99.90;;;;;;5076059;28;20012;-69
2022/09/27 07:40:18;;;;;;;23.80;7.78;;;10.30;99.90;;;;;;5076511;28;20377;-69
2022/09/27 07:42:44;;;;;;;23.38;6.97;;;10.30;99.90;;;;;;5075535;28;20021;-69
2022/09/27 07:45:10;;;;;;;20.13;7.07;;;10.30;99.90;;;;;;5076552;28;20410;-69
2022/09/27 07:47:40;;;;;;;26.30;6.95;;;10.30;99.90;;;;;;5076429;28;20066;-69
2022/09/27 07:50:09;;;;;;;27.08;7.90;;;10.30;99.90;;;;;;5075091;28;20380;-69
2022/09/27 07:52:42;;;;;;;28.92;6.35;;;10.40;99.90;;;;;;5075541;28;20424;-69
2022/09/27 07:55:10;;;;;;;25.00;6.55;;;10.30;99.90;;;;;;5075851;28;20047;-68
2022/09/27 07:57:36;;;;;;;25.65;10.25;;;10.40;99.90;;;;;;5075682;28;20380;-69
2022/09/27 08:00:07;;;;;;;47.90;17.05;;;10.40;99.90;;;;;;5075752;28;20021;-69
2022/09/27 08:02:33;;;;;;;24.67;7.05;;;10.40;99.90;;;;;;5075895;28;20380;-69
2022/09/27 08:04:59;;;;;;;23.15;6.75;;;10.40;99.90;;;;;;5075131;28;20025;-69
2022/09/27 08:07:26;;;;;;;31.08;7.60;;;10.40;99.90;;;;;;5075566;28;20033;-68
2022/09/27 08:09:51;;;;;;;48.70;17.42;;;10.50;99.90;;;;;;5075553;28;20025;-69
2022/09/27 08:12:20;;;;;;;29.63;8.02;;;10.50;99.90;;;;;;5075825;28;20468;-68
2022/09/27 08:14:46;;;;;;;27.25;6.35;;;10.60;99.90;;;;;;5075532;28;20020;-69
2022/09/27 08:17:12;;;;;;;31.65;7.90;;;10.60;99.90;;;;;;5074849;28;20032;-69
2022/09/27 08:19:39;;;;;;;27.40;6.00;;;10.60;99.90;;;;;;5075571;28;20021;-69
2022/09/27 08:22:06;;;;;;;19.50;5.55;;;10.60;99.90;;;;;;5075594;28;20103;-68
2022/09/27 08:24:32;;;;;;;29.65;5.88;;;10.50;99.90;;;;;;5075373;28;20480;-69
2022/09/27 08:26:58;;;;;;;26.25;8.93;;;10.50;99.90;;;;;;5074676;28;20453;-69
2022/09/27 08:29:24;;;;;;;27.33;9.65;;;10.60;99.90;;;;;;5075458;28;20040;-68
2022/09/27 08:31:50;;;;;;;23.42;8.52;;;10.60;99.90;;;;;;5075348;28;20036;-69
2022/09/27 08:34:16;;;;;;;34.25;5.07;;;10.60;99.90;;;;;;5075149;28;20025;-69
2022/09/27 08:36:42;;;;;;;26.48;4.85;;;10.60;99.90;;;;;;5074468;28;20415;-69
2022/09/27 08:39:08;;;;;;;19.98;5.00;;;10.50;99.90;;;;;;5075041;28;20025;-68
2022/09/27 08:42:01;;;;;;;30.42;4.80;;;10.50;99.90;;;;;;5074976;28;20043;-68
2022/09/27 08:44:45;;;;;;;24.45;4.95;;;10.50;99.90;;;;;;5075179;28;20099;-69
2022/09/27 08:47:15;;;;;;;;;;;10.50;99.90;;;;;;5074917;28;20036;-69
2022/09/27 08:49:58;;;;;;;18.50;4.47;;;10.60;99.90;;;;;;5074942;28;20364;-69
2022/09/27 08:52:40;;;;;;;14.68;4.50;;;10.60;99.90;;;;;;5074887;28;20078;-69
2022/09/27 08:55:21;;;;;;;18.20;5.18;;;10.70;99.90;;;;;;5075030;28;20031;-69
2022/09/27 08:57:54;;;;;;;22.73;5.30;;;10.70;99.90;;;;;;5096419;22;20128;-72
2022/09/27 09:00:20;;;;;;;18.05;4.63;;;10.70;99.90;;;;;;5034904;28;20055;-72
2022/09/27 09:02:46;;;;;;;28.48;5.90;;;10.70;99.90;;;;;;5033771;28;20139;-71
2022/09/27 09:05:23;;;;;;;29.13;5.85;;;10.80;99.90;;;;;;5015182;28;20102;-72
2022/09/27 09:08:08;;;;;;;22.77;6.22;;;10.80;99.90;;;;;;5015086;28;20030;-72
2022/09/27 09:13:41;;;;;;;19.05;5.15;;;10.90;99.90;;;;;;5015166;28;20493;-71
2022/09/27 09:16:17;;;;;;;24.17;5.90;;;10.90;99.90;;;;;;5014953;28;20025;-72
2022/09/27 09:18:54;;;;;;;18.08;6.07;;;10.90;99.90;;;;;;5014651;28;20049;-72
2022/09/27 09:21:44;;;;;;;20.13;5.30;;;11.00;99.90;;;;;;5014888;28;20425;-72
2022/09/27 09:24:51;;;;;;;28.70;9.93;;;11.10;99.90;;;;;;5027590;28;20018;-71
2022/09/27 09:27:28;;;;;;;26.25;5.75;;;11.20;99.90;;;;;;5030653;28;20080;-71
2022/09/27 09:30:20;;;;;;;33.95;5.80;;;11.20;99.90;;;;;;5034254;28;20107;-72
2022/09/27 09:33:19;;;;;;;23.67;5.88;;;11.10;99.90;;;;;;5033628;28;20037;-71
2022/09/27 09:35:58;;;;;;;31.45;6.68;;;11.00;99.90;;;;;;5033640;28;20030;-72
2022/09/27 09:38:55;;;;;;;23.85;6.78;;;11.00;99.90;;;;;;5034104;28;20073;-72
2022/09/27 09:41:37;;;;;;;25.80;5.45;;;11.00;99.90;;;;;;5001416;28;20129;-71
2022/09/27 09:44:15;;;;;;;16.00;4.65;;;10.90;99.90;;;;;;5013945;28;20080;-71
2022/09/27 09:46:44;;;;;;;19.08;4.47;;;11.00;99.90;;;;;;5014733;28;20097;-72
2022/09/27 09:49:22;;;;;;;26.67;4.57;;;11.10;99.90;;;;;;5014684;28;20129;-71
2022/09/27 09:51:55;;;;;;;22.63;5.05;;;11.10;99.90;;;;;;5013950;28;20026;-72
2022/09/27 09:54:34;;;;;;;14.33;3.07;;;11.10;99.90;;;;;;5014387;28;20022;-72
2022/09/27 09:57:19;;;;;;;14.07;3.58;;;11.10;99.90;;;;;;5013525;28;20753;-72
2022/09/27 09:59:48;;;;;;;16.55;4.28;;;11.10;99.90;;;;;;5014097;28;20026;-72
2022/09/27 10:02:35;;;;;;;17.40;4.07;;;11.10;99.90;;;;;;5016993;28;20363;-71
2022/09/27 10:05:03;;;;;;;17.10;3.35;;;11.10;99.90;;;;;;5033519;28;20014;-71
2022/09/27 10:07:32;;;;;;;18.95;3.72;;;11.20;99.90;;;;;;5033545;28;20481;-71
2022/09/27 10:10:05;;;;;;;14.20;3.40;;;11.20;99.90;;;;;;5034045;28;20087;-71
2022/09/27 10:12:31;;;;;;;16.83;3.78;;;11.30;99.90;;;;;;5034042;28;20440;-72
2022/09/27 10:15:03;;;;;;;9.70;2.60;;;11.30;99.90;;;;;;5029632;28;20018;-71
2022/09/27 10:17:37;;;;;;;16.60;2.60;;;11.20;99.90;;;;;;5013600;28;20080;-71
2022/09/27 10:20:05;;;;;;;16.00;3.28;;;11.20;99.90;;;;;;5013874;28;20038;-71
2022/09/27 10:22:41;;;;;;;12.68;2.83;;;11.10;99.90;;;;;;5013224;28;20026;-71
2022/09/27 10:25:08;;;;;;;16.70;3.50;;;11.10;99.90;;;;;;5013699;28;20041;-71
2022/09/27 10:27:40;;;;;;;23.60;3.17;;;11.20;99.90;;;;;;5013522;28;20040;-71
2022/09/27 10:30:21;;;;;;;20.70;3.55;;;11.30;99.90;;;;;;5013859;28;20116;-71
2022/09/27 10:32:53;;;;;;;19.30;2.72;;;11.40;99.90;;;;;;5025651;28;20512;-71
2022/09/27 10:35:27;;;;;;;15.00;2.67;;;11.30;99.90;;;;;;5014438;28;20036;-71
2022/09/27 10:38:09;;;;;;;9.52;2.47;;;11.40;99.90;;;;;;5012794;28;20026;-71
2022/09/27 10:40:35;;;;;;;20.08;4.40;;;11.40;99.90;;;;;;5013916;28;20423;-71
2022/09/27 10:43:00;;;;;;;19.38;4.28;;;11.40;99.90;;;;;;5013671;28;20109;-71
2022/09/27 10:45:29;;;;;;;14.43;2.53;;;11.60;99.90;;;;;;5013444;28;20037;-71
2022/09/27 10:47:56;;;;;;;13.25;2.88;;;11.60;99.90;;;;;;5012825;28;20022;-71
2022/09/27 10:50:28;;;;;;;8.88;3.00;;;11.70;99.90;;;;;;5013373;28;20113;-71
2022/09/27 10:53:10;;;;;;;12.45;3.85;;;11.80;99.90;;;;;;5013694;28;20033;-71
2022/09/27 10:55:36;;;;;;;16.50;4.00;;;11.80;99.90;;;;;;5013379;28;20033;-71
2022/09/27 10:58:03;;;;;;;18.17;3.10;;;11.80;99.90;;;;;;5013077;28;20552;-71
2022/09/27 11:00:34;;;;;;;12.52;3.58;;;11.90;99.90;;;;;;5012055;28;20034;-71
2022/09/27 11:03:05;;;;;;;16.98;3.90;;;11.90;99.90;;;;;;5012798;28;20024;-71
2022/09/27 11:05:35;;;;;;;10.25;2.97;;;11.90;99.90;;;;;;5013639;28;20046;-72
2022/09/27 11:08:23;;;;;;;10.13;2.88;;;12.00;99.90;;;;;;5013252;28;20052;-72
2022/09/27 11:11:24;;;;;;;15.35;2.70;;;12.00;99.90;;;;;;5013271;28;20026;-72
2022/09/27 11:14:06;;;;;;;13.57;3.08;;;12.00;99.90;;;;;;4959896;28;20086;-71
2022/09/27 11:16:44;;;;;;;18.05;3.15;;;12.00;99.90;;;;;;5009735;28;20054;-71
2022/09/27 11:19:22;;;;;;;11.20;2.40;;;11.90;99.90;;;;;;5013178;28;20061;-71
2022/09/27 11:21:55;;;;;;;10.60;3.55;;;11.80;99.90;;;;;;5013459;28;20374;-71
2022/09/27 11:24:34;;;;;;;10.70;2.72;;;11.80;99.90;;;;;;5012805;28;20466;-71
2022/09/27 11:27:17;;;;;;;10.90;3.20;;;11.90;99.90;;;;;;5016604;28;20412;-71
2022/09/27 11:29:58;;;;;;;19.20;5.53;;;12.10;99.90;;;;;;5017024;28;20034;-71
2022/09/27 11:33:04;;;;;;;10.23;3.30;;;12.10;99.90;;;;;;5016504;28;20034;-71
2022/09/27 11:35:43;;;;;;;6.70;2.55;;;12.10;99.90;;;;;;5016695;28;20026;-71
2022/09/27 11:38:14;;;;;;;13.65;2.47;;;12.10;99.90;;;;;;5016638;28;20100;-72
2022/09/27 11:41:12;;;;;;;4.63;1.98;;;12.00;99.90;;;;;;5016709;28;20148;-72
2022/09/27 11:43:58;;;;;;;7.43;2.60;;;12.00;99.90;;;;;;5016658;28;20403;-71
2022/09/27 11:46:33;;;;;;;6.38;1.80;;;11.80;99.90;;;;;;5016383;28;20469;-71
2022/09/27 11:49:10;;;;;;;9.27;1.90;;;11.60;99.90;;;;;;5016396;28;20036;-72
2022/09/27 11:51:45;;;;;;;8.45;2.05;;;11.60;99.90;;;;;;5016858;28;20034;-72
2022/09/27 11:54:45;;;;;;;8.50;2.38;;;11.60;99.90;;;;;;5016258;28;20037;-71
2022/09/27 11:57:33;;;;;;;5.70;1.52;;;11.80;99.90;;;;;;4983283;28;20042;-71
2022/09/27 12:00:27;;;;;;;12.35;2.92;;;12.10;99.90;;;;;;5016172;28;20030;-71
2022/09/27 12:02:52;;;;;;;;;;;12.50;99.90;;;;;;5016493;28;20022;-71
2022/09/27 12:05:51;;;;;;;6.30;1.88;;;12.90;99.90;;;;;;5016203;28;20000;-71
2022/09/27 12:08:46;;;;;;;11.05;2.08;;;13.20;99.90;;;;;;5016019;28;20030;-72
2022/09/27 12:11:33;;;;;;;6.93;1.50;;;13.30;99.90;;;;;;5015335;28;20032;-71
2022/09/27 12:14:15;;;;;;;6.28;1.00;;;13.60;99.90;;;;;;5016008;28;20071;-71
2022/09/27 12:16:42;;;;;;;8.75;1.40;;;13.40;99.90;;;;;;5016234;28;20033;-71
2022/09/27 12:19:30;;;;;;;3.92;0.93;;;13.40;99.90;;;;;;5015240;28;20466;-72
2022/09/27 12:21:59;;;;;;;4.80;1.02;;;13.50;99.90;;;;;;5016139;28;20111;-71
2022/09/27 12:24:26;;;;;;;5.03;1.15;;;13.20;99.90;;;;;;5015674;28;20496;-71
2022/09/27 12:26:57;;;;;;;3.95;1.33;;;13.20;99.90;;;;;;5015882;28;20164;-71
2022/09/27 12:29:30;;;;;;;5.30;1.38;;;13.00;99.90;;;;;;5015544;28;20058;-71
2022/09/27 12:32:16;;;;;;;9.43;1.73;;;13.20;99.90;;;;;;5015171;28;20050;-71
2022/09/27 12:35:03;;;;;;;4.60;1.52;;;13.40;99.90;;;;;;5015864;28;20057;-71
2022/09/27 12:37:59;;;;;;;2.92;0.93;;;13.40;99.90;;;;;;5015408;28;20030;-71
2022/09/27 12:40:57;;;;;;;9.43;1.10;;;13.50;99.90;;;;;;5015984;28;20033;-72
2022/09/27 12:43:31;;;;;;;9.88;1.38;;;13.50;99.90;;;;;;5002641;28;20040;-71
2022/09/27 12:46:34;;;;;;;5.07;1.42;;;13.40;99.90;;;;;;5015601;28;20089;-71
2022/09/27 12:49:21;;;;;;;5.85;1.50;;;13.30;99.90;;;;;;5015117;28;20030;-71
2022/09/27 12:52:00;;;;;;;3.15;1.10;;;13.30;99.90;;;;;;5015552;28;20028;-71
2022/09/27 12:55:07;;;;;;;8.88;1.20;;;13.30;99.90;;;;;;5015328;28;20108;-71
2022/09/27 12:57:33;;;;;;;7.00;1.15;;;13.30;99.90;;;;;;5014954;28;20045;-72
2022/09/27 13:00:18;;;;;;;5.35;1.30;;;13.30;99.90;;;;;;5015311;28;20025;-71
2022/09/27 13:03:06;;;;;;;7.03;1.02;;;13.90;99.90;;;;;;5015261;28;20373;-71
2022/09/27 13:06:10;;;;;;;8.48;1.10;;;13.90;99.90;;;;;;5015354;28;20018;-71
2022/09/27 13:09:13;;;;;;;4.13;1.30;;;14.90;99.90;;;;;;5014843;28;20068;-72
2022/09/27 13:11:57;;;;;;;2.20;0.95;;;16.20;99.90;;;;;;5015065;28;20104;-72
2022/09/27 13:14:25;;;;;;;13.75;1.40;;;16.00;99.90;;;;;;5015085;28;20496;-71
2022/09/27 13:16:51;;;;;;;7.05;2.25;;;15.10;99.90;;;;;;5014072;28;20145;-71
2022/09/27 13:19:38;;;;;;;5.05;1.48;;;14.40;99.90;;;;;;5014923;28;20435;-71